sensor_id;sensor_type;location;lat;lon;timestamp;pressure;altitude;pressure_sealevel;temperature;humidity
35551;BME280;21655;46.056;13.616;2023-04-07T00:02:07;100555.47;;;3.64;100.00
35551;BME280;21655;46.056;13.616;2023-04-07T00:04:32;100562.22;;;3.61;100.00
35551;BME280;21655;46.056;13.616;2023-04-07T00:06:58;100558.94;;;3.66;100.00
35551;BME280;21655;46.056;13.616;2023-04-07T00:09:23;100557.09;;;3.67;100.00
35551;BME280;21655;46.056;13.616;2023-04-07T00:11:49;100561.41;;;3.69;100.00
35551;BME280;21655;46.056;13.616;2023-04-07T00:14:15;100555.09;;;3.69;100.00
35551;BME280;21655;46.056;13.616;2023-04-07T00:16:40;100552.69;;;3.75;100.00
35551;BME280;21655;46.056;13.616;2023-04-07T00:19:06;100552.72;;;3.64;100.00
35551;BME280;21655;46.056;13.616;2023-04-07T00:21:31;100555.03;;;3.49;100.00
35551;BME280;21655;46.056;13.616;2023-04-07T00:23:57;100556.19;;;3.46;100.00
35551;BME280;21655;46.056;13.616;2023-04-07T00:26:23;100550.66;;;3.57;100.00
35551;BME280;21655;46.056;13.616;2023-04-07T00:28:51;100557.16;;;3.45;100.00
35551;BME280;21655;46.056;13.616;2023-04-07T00:31:16;100553.69;;;3.43;100.00
35551;BME280;21655;46.056;13.616;2023-04-07T00:33:42;100552.22;;;3.39;100.00
35551;BME280;21655;46.056;13.616;2023-04-07T00:36:07;100553.97;;;3.40;100.00
35551;BME280;21655;46.056;13.616;2023-04-07T00:38:33;100561.84;;;3.34;100.00
35551;BME280;21655;46.056;13.616;2023-04-07T00:40:58;100556.25;;;3.24;100.00
35551;BME280;21655;46.056;13.616;2023-04-07T00:43:24;100552.75;;;3.33;100.00
35551;BME280;21655;46.056;13.616;2023-04-07T00:45:50;100552.97;;;3.41;100.00
35551;BME280;21655;46.056;13.616;2023-04-07T00:48:16;100553.69;;;3.43;100.00
35551;BME280;21655;46.056;13.616;2023-04-07T00:50:42;100554.78;;;3.20;100.00
35551;BME280;21655;46.056;13.616;2023-04-07T00:53:09;100553.25;;;3.27;100.00
35551;BME280;21655;46.056;13.616;2023-04-07T00:55:35;100554.53;;;3.12;100.00
35551;BME280;21655;46.056;13.616;2023-04-07T00:58:00;100555.19;;;3.05;100.00
35551;BME280;21655;46.056;13.616;2023-04-07T01:00:26;100549.50;;;2.97;100.00
35551;BME280;21655;46.056;13.616;2023-04-07T01:03:12;100546.59;;;3.09;100.00
35551;BME280;21655;46.056;13.616;2023-04-07T01:05:54;100540.25;;;3.09;100.00
35551;BME280;21655;46.056;13.616;2023-04-07T01:11:22;100548.47;;;3.09;100.00
35551;BME280;21655;46.056;13.616;2023-04-07T01:13:50;100543.75;;;3.11;100.00
35551;BME280;21655;46.056;13.616;2023-04-07T01:16:23;100546.75;;;3.08;100.00
35551;BME280;21655;46.056;13.616;2023-04-07T01:18:51;100553.06;;;3.08;100.00
35551;BME280;21655;46.056;13.616;2023-04-07T01:21:18;100546.84;;;3.06;100.00
35551;BME280;21655;46.056;13.616;2023-04-07T01:26:36;100548.50;;;2.98;100.00
35551;BME280;21655;46.056;13.616;2023-04-07T01:29:38;100552.06;;;3.09;100.00
35551;BME280;21655;46.056;13.616;2023-04-07T01:32:10;100552.44;;;3.05;100.00
35551;BME280;21655;46.056;13.616;2023-04-07T01:34:37;100545.88;;;2.96;100.00
35551;BME280;21655;46.056;13.616;2023-04-07T01:37:03;100546.28;;;2.92;100.00
35551;BME280;21655;46.056;13.616;2023-04-07T01:39:29;100555.88;;;2.86;100.00
35551;BME280;21655;46.056;13.616;2023-04-07T01:41:56;100564.72;;;2.68;100.00
35551;BME280;21655;46.056;13.616;2023-04-07T01:44:25;100552.56;;;2.61;100.00
35551;BME280;21655;46.056;13.616;2023-04-07T01:46:51;100557.13;;;2.60;100.00
35551;BME280;21655;46.056;13.616;2023-04-07T01:49:18;100554.66;;;2.68;100.00
35551;BME280;21655;46.056;13.616;2023-04-07T01:51:44;100556.41;;;2.80;100.00
35551;BME280;21655;46.056;13.616;2023-04-07T01:54:15;100553.75;;;2.90;100.00
35551;BME280;21655;46.056;13.616;2023-04-07T01:56:42;100547.66;;;2.75;100.00
35551;BME280;21655;46.056;13.616;2023-04-07T01:59:09;100547.56;;;2.66;100.00
35551;BME280;21655;46.056;13.616;2023-04-07T02:01:34;100549.06;;;2.59;100.00
35551;BME280;21655;46.056;13.616;2023-04-07T02:06:51;100551.41;;;2.74;100.00
35551;BME280;21655;46.056;13.616;2023-04-07T02:09:19;100554.16;;;2.63;100.00
35551;BME280;21655;46.056;13.616;2023-04-07T02:11:45;100549.56;;;2.42;100.00
35551;BME280;21655;46.056;13.616;2023-04-07T02:14:13;100549.06;;;2.48;100.00
35551;BME280;21655;46.056;13.616;2023-04-07T02:16:40;100550.19;;;2.45;100.00
35551;BME280;21655;46.056;13.616;2023-04-07T02:19:05;100552.69;;;2.48;100.00
35551;BME280;21655;46.056;13.616;2023-04-07T02:21:33;100544.84;;;2.44;100.00
35551;BME280;21655;46.056;13.616;2023-04-07T02:24:06;100542.22;;;2.53;100.00
35551;BME280;21655;46.056;13.616;2023-04-07T02:26:35;100540.13;;;2.57;100.00
35551;BME280;21655;46.056;13.616;2023-04-07T02:29:02;100537.88;;;2.62;100.00
35551;BME280;21655;46.056;13.616;2023-04-07T02:31:28;100541.22;;;2.43;100.00
35551;BME280;21655;46.056;13.616;2023-04-07T02:33:53;100535.75;;;2.54;100.00
35551;BME280;21655;46.056;13.616;2023-04-07T02:36:19;100530.41;;;2.64;100.00
35551;BME280;21655;46.056;13.616;2023-04-07T02:38:44;100530.28;;;2.54;100.00
35551;BME280;21655;46.056;13.616;2023-04-07T02:41:10;100537.59;;;2.54;100.00
35551;BME280;21655;46.056;13.616;2023-04-07T02:43:35;100529.53;;;2.52;100.00
35551;BME280;21655;46.056;13.616;2023-04-07T02:46:01;100529.78;;;2.60;100.00
35551;BME280;21655;46.056;13.616;2023-04-07T02:48:26;100526.06;;;2.50;100.00
35551;BME280;21655;46.056;13.616;2023-04-07T02:50:52;100519.72;;;2.50;100.00
35551;BME280;21655;46.056;13.616;2023-04-07T02:53:17;100521.84;;;2.35;100.00
35551;BME280;21655;46.056;13.616;2023-04-07T02:55:43;100529.44;;;2.32;100.00
35551;BME280;21655;46.056;13.616;2023-04-07T02:58:08;100523.59;;;2.36;100.00
35551;BME280;21655;46.056;13.616;2023-04-07T03:00:34;100524.56;;;2.24;100.00
35551;BME280;21655;46.056;13.616;2023-04-07T03:02:59;100525.94;;;2.30;100.00
35551;BME280;21655;46.056;13.616;2023-04-07T03:05:25;100519.34;;;2.21;100.00
35551;BME280;21655;46.056;13.616;2023-04-07T03:07:51;100518.75;;;2.07;100.00
35551;BME280;21655;46.056;13.616;2023-04-07T03:10:16;100497.97;;;2.26;100.00
35551;BME280;21655;46.056;13.616;2023-04-07T03:12:42;100510.16;;;2.22;100.00
35551;BME280;21655;46.056;13.616;2023-04-07T03:15:08;100512.00;;;2.22;100.00
35551;BME280;21655;46.056;13.616;2023-04-07T03:17:33;100509.16;;;2.12;100.00
35551;BME280;21655;46.056;13.616;2023-04-07T03:19:59;100512.00;;;2.22;100.00
35551;BME280;21655;46.056;13.616;2023-04-07T03:24:00;100518.72;;;2.18;100.00
35551;BME280;21655;46.056;13.616;2023-04-07T03:26:25;100507.53;;;2.21;100.00
35551;BME280;21655;46.056;13.616;2023-04-07T03:28:51;100508.16;;;2.13;100.00
35551;BME280;21655;46.056;13.616;2023-04-07T03:31:17;100502.09;;;2.10;100.00
35551;BME280;21655;46.056;13.616;2023-04-07T03:33:42;100502.81;;;2.12;100.00
35551;BME280;21655;46.056;13.616;2023-04-07T03:36:08;100513.75;;;2.01;100.00
35551;BME280;21655;46.056;13.616;2023-04-07T03:38:33;100513.13;;;2.08;100.00
35551;BME280;21655;46.056;13.616;2023-04-07T03:40:59;100512.66;;;2.14;100.00
35551;BME280;21655;46.056;13.616;2023-04-07T03:43:25;100512.91;;;2.22;100.00
35551;BME280;21655;46.056;13.616;2023-04-07T03:45:53;100511.41;;;2.07;100.00
35551;BME280;21655;46.056;13.616;2023-04-07T03:48:19;100510.78;;;2.15;100.00
35551;BME280;21655;46.056;13.616;2023-04-07T03:50:44;100516.00;;;2.18;100.00
35551;BME280;21655;46.056;13.616;2023-04-07T03:53:10;100521.22;;;2.10;100.00
35551;BME280;21655;46.056;13.616;2023-04-07T03:55:38;100514.28;;;2.06;100.00
35551;BME280;21655;46.056;13.616;2023-04-07T03:58:04;100521.72;;;2.15;100.00
35551;BME280;21655;46.056;13.616;2023-04-07T04:00:29;100523.94;;;2.21;100.00
35551;BME280;21655;46.056;13.616;2023-04-07T04:02:57;100538.22;;;2.13;100.00
35551;BME280;21655;46.056;13.616;2023-04-07T04:05:23;100528.69;;;2.08;100.00
35551;BME280;21655;46.056;13.616;2023-04-07T04:07:48;100538.38;;;2.12;100.00
35551;BME280;21655;46.056;13.616;2023-04-07T04:10:15;100530.69;;;2.06;100.00
35551;BME280;21655;46.056;13.616;2023-04-07T04:12:41;100534.16;;;2.08;100.00
35551;BME280;21655;46.056;13.616;2023-04-07T04:15:06;100536.22;;;1.93;100.00
35551;BME280;21655;46.056;13.616;2023-04-07T04:17:32;100526.91;;;1.85;100.00
35551;BME280;21655;46.056;13.616;2023-04-07T04:19:57;100523.44;;;1.94;100.00
35551;BME280;21655;46.056;13.616;2023-04-07T04:22:23;100528.63;;;1.86;100.00
35551;BME280;21655;46.056;13.616;2023-04-07T04:24:48;100533.63;;;1.92;100.00
35551;BME280;21655;46.056;13.616;2023-04-07T04:27:14;100529.53;;;1.86;100.00
35551;BME280;21655;46.056;13.616;2023-04-07T04:29:40;100533.72;;;1.69;100.00
35551;BME280;21655;46.056;13.616;2023-04-07T04:32:05;100535.69;;;1.77;100.00
35551;BME280;21655;46.056;13.616;2023-04-07T04:34:30;100533.63;;;1.92;100.00
35551;BME280;21655;46.056;13.616;2023-04-07T04:36:56;100535.69;;;1.77;100.00
35551;BME280;21655;46.056;13.616;2023-04-07T04:39:21;100543.00;;;1.66;100.00
35551;BME280;21655;46.056;13.616;2023-04-07T04:41:47;100541.75;;;1.70;100.00
35551;BME280;21655;46.056;13.616;2023-04-07T04:44:12;100550.34;;;1.77;100.00
35551;BME280;21655;46.056;13.616;2023-04-07T04:46:38;100547.63;;;1.77;100.00
35551;BME280;21655;46.056;13.616;2023-04-07T04:49:03;100541.81;;;1.81;100.00
35551;BME280;21655;46.056;13.616;2023-04-07T04:51:29;100547.66;;;1.87;100.00
35551;BME280;21655;46.056;13.616;2023-04-07T04:53:55;100557.84;;;1.85;100.00
35551;BME280;21655;46.056;13.616;2023-04-07T04:56:20;100546.41;;;1.91;100.00
35551;BME280;21655;46.056;13.616;2023-04-07T04:58:46;100543.56;;;1.93;100.00
35551;BME280;21655;46.056;13.616;2023-04-07T05:01:12;100553.41;;;2.06;100.00
35551;BME280;21655;46.056;13.616;2023-04-07T05:03:37;100557.38;;;2.02;100.00
35551;BME280;21655;46.056;13.616;2023-04-07T05:06:03;100553.66;;;2.03;100.00
35551;BME280;21655;46.056;13.616;2023-04-07T05:08:29;100556.84;;;1.97;100.00
35551;BME280;21655;46.056;13.616;2023-04-07T05:10:54;100556.63;;;2.11;100.00
35551;BME280;21655;46.056;13.616;2023-04-07T05:13:20;100540.25;;;2.22;100.00
35551;BME280;21655;46.056;13.616;2023-04-07T05:15:46;100548.47;;;2.33;100.00
35551;BME280;21655;46.056;13.616;2023-04-07T05:18:11;100544.47;;;2.48;100.00
35551;BME280;21655;46.056;13.616;2023-04-07T05:20:37;100547.34;;;2.47;100.00
35551;BME280;21655;46.056;13.616;2023-04-07T05:23:03;100543.47;;;2.60;100.00
35551;BME280;21655;46.056;13.616;2023-04-07T05:25:29;100548.81;;;2.62;100.00
35551;BME280;21655;46.056;13.616;2023-04-07T05:27:57;100542.34;;;2.74;100.00
35551;BME280;21655;46.056;13.616;2023-04-07T05:30:22;100544.34;;;2.28;100.00
35551;BME280;21655;46.056;13.616;2023-04-07T05:32:48;100556.28;;;2.38;100.00
35551;BME280;21655;46.056;13.616;2023-04-07T05:35:13;100558.16;;;2.48;100.00
35551;BME280;21655;46.056;13.616;2023-04-07T05:37:39;100555.41;;;2.59;100.00
35551;BME280;21655;46.056;13.616;2023-04-07T05:40:05;100550.16;;;2.78;100.00
35551;BME280;21655;46.056;13.616;2023-04-07T05:42:31;100550.13;;;2.89;100.00
35551;BME280;21655;46.056;13.616;2023-04-07T05:44:56;100559.78;;;3.15;100.00
35551;BME280;21655;46.056;13.616;2023-04-07T05:47:22;100549.00;;;3.34;100.00
35551;BME280;21655;46.056;13.616;2023-04-07T05:49:47;100549.19;;;3.94;100.00
35551;BME280;21655;46.056;13.616;2023-04-07T05:52:13;100552.47;;;5.08;100.00
35551;BME280;21655;46.056;13.616;2023-04-07T05:54:38;100546.34;;;5.91;100.00
35551;BME280;21655;46.056;13.616;2023-04-07T05:57:07;100540.25;;;6.52;100.00
35551;BME280;21655;46.056;13.616;2023-04-07T05:59:34;100528.72;;;7.20;100.00
35551;BME280;21655;46.056;13.616;2023-04-07T06:01:59;100527.22;;;7.52;100.00
35551;BME280;21655;46.056;13.616;2023-04-07T06:04:25;100530.66;;;7.54;100.00
35551;BME280;21655;46.056;13.616;2023-04-07T06:06:50;100524.63;;;8.11;100.00
35551;BME280;21655;46.056;13.616;2023-04-07T06:09:22;100523.25;;;7.72;100.00
35551;BME280;21655;46.056;13.616;2023-04-07T06:11:48;100523.22;;;8.84;100.00
35551;BME280;21655;46.056;13.616;2023-04-07T06:14:13;100519.41;;;8.77;100.00
35551;BME280;21655;46.056;13.616;2023-04-07T06:16:39;100522.78;;;8.71;100.00
35551;BME280;21655;46.056;13.616;2023-04-07T06:19:05;100521.81;;;8.80;100.00
35551;BME280;21655;46.056;13.616;2023-04-07T06:21:32;100523.75;;;8.87;100.00
35551;BME280;21655;46.056;13.616;2023-04-07T06:23:57;100520.41;;;9.98;100.00
35551;BME280;21655;46.056;13.616;2023-04-07T06:26:23;100516.19;;;9.54;100.00
35551;BME280;21655;46.056;13.616;2023-04-07T06:28:48;100509.03;;;10.88;100.00
35551;BME280;21655;46.056;13.616;2023-04-07T06:31:14;100518.34;;;10.16;100.00
35551;BME280;21655;46.056;13.616;2023-04-07T06:33:39;100508.34;;;11.54;89.60
35551;BME280;21655;46.056;13.616;2023-04-07T06:36:06;100503.88;;;11.15;89.84
35551;BME280;21655;46.056;13.616;2023-04-07T06:38:32;100499.03;;;10.71;90.94
35551;BME280;21655;46.056;13.616;2023-04-07T06:40:57;100504.53;;;11.25;92.57
35551;BME280;21655;46.056;13.616;2023-04-07T06:43:23;100500.59;;;11.12;87.54
35551;BME280;21655;46.056;13.616;2023-04-07T06:45:48;100494.09;;;11.65;88.69
35551;BME280;21655;46.056;13.616;2023-04-07T06:48:14;100489.19;;;12.64;78.63
35551;BME280;21655;46.056;13.616;2023-04-07T06:50:40;100500.19;;;13.09;69.38
35551;BME280;21655;46.056;13.616;2023-04-07T06:53:05;100489.06;;;12.94;71.04
35551;BME280;21655;46.056;13.616;2023-04-07T06:55:31;100489.59;;;13.33;69.02
35551;BME280;21655;46.056;13.616;2023-04-07T06:57:56;100491.31;;;14.11;63.33
35551;BME280;21655;46.056;13.616;2023-04-07T07:00:22;100483.56;;;13.86;61.46
35551;BME280;21655;46.056;13.616;2023-04-07T07:02:48;100487.34;;;13.78;58.61
35551;BME280;21655;46.056;13.616;2023-04-07T07:05:14;100490.28;;;13.56;59.38
35551;BME280;21655;46.056;13.616;2023-04-07T07:07:39;100479.53;;;13.88;57.35
35551;BME280;21655;46.056;13.616;2023-04-07T07:10:07;100476.03;;;13.65;60.03
35551;BME280;21655;46.056;13.616;2023-04-07T07:12:33;100483.22;;;13.53;60.67
35551;BME280;21655;46.056;13.616;2023-04-07T07:14:59;100477.97;;;13.29;60.96
35551;BME280;21655;46.056;13.616;2023-04-07T07:17:24;100484.63;;;13.49;60.11
35551;BME280;21655;46.056;13.616;2023-04-07T07:19:50;100474.22;;;13.72;58.27
35551;BME280;21655;46.056;13.616;2023-04-07T07:22:15;100472.66;;;13.49;58.34
35551;BME280;21655;46.056;13.616;2023-04-07T07:24:41;100463.78;;;14.44;59.43
35551;BME280;21655;46.056;13.616;2023-04-07T07:27:06;100468.47;;;14.16;55.56
35551;BME280;21655;46.056;13.616;2023-04-07T07:29:31;100468.16;;;14.11;55.25
35551;BME280;21655;46.056;13.616;2023-04-07T07:31:57;100457.28;;;15.04;56.53
35551;BME280;21655;46.056;13.616;2023-04-07T07:34:22;100461.34;;;16.09;51.21
35551;BME280;21655;46.056;13.616;2023-04-07T07:36:48;100456.19;;;16.84;48.48
35551;BME280;21655;46.056;13.616;2023-04-07T07:39:13;100446.72;;;17.54;48.21
35551;BME280;21655;46.056;13.616;2023-04-07T07:41:39;100442.97;;;18.35;46.01
35551;BME280;21655;46.056;13.616;2023-04-07T07:44:05;100448.41;;;19.39;41.89
35551;BME280;21655;46.056;13.616;2023-04-07T07:46:31;100448.13;;;19.05;42.32
35551;BME280;21655;46.056;13.616;2023-04-07T07:48:56;100442.41;;;19.36;41.49
35551;BME280;21655;46.056;13.616;2023-04-07T07:51:21;100447.06;;;19.42;41.56
35551;BME280;21655;46.056;13.616;2023-04-07T07:53:47;100438.25;;;19.38;38.89
35551;BME280;21655;46.056;13.616;2023-04-07T07:56:12;100443.59;;;18.62;40.62
35551;BME280;21655;46.056;13.616;2023-04-07T07:58:38;100441.94;;;18.54;43.11
35551;BME280;21655;46.056;13.616;2023-04-07T08:01:04;100429.72;;;18.67;40.88
35551;BME280;21655;46.056;13.616;2023-04-07T08:03:29;100435.16;;;19.04;41.17
35551;BME280;21655;46.056;13.616;2023-04-07T08:05:55;100423.13;;;19.69;40.19
35551;BME280;21655;46.056;13.616;2023-04-07T08:08:20;100427.53;;;19.94;38.80
35551;BME280;21655;46.056;13.616;2023-04-07T08:10:46;100417.09;;;19.65;38.38
35551;BME280;21655;46.056;13.616;2023-04-07T08:13:11;100418.84;;;20.25;35.64
35551;BME280;21655;46.056;13.616;2023-04-07T08:15:38;100411.59;;;20.18;37.27
35551;BME280;21655;46.056;13.616;2023-04-07T08:18:04;100405.97;;;20.18;37.81
35551;BME280;21655;46.056;13.616;2023-04-07T08:20:30;100408.97;;;20.57;37.56
35551;BME280;21655;46.056;13.616;2023-04-07T08:22:56;100401.63;;;20.68;36.19
35551;BME280;21655;46.056;13.616;2023-04-07T08:25:22;100407.09;;;20.28;37.29
35551;BME280;21655;46.056;13.616;2023-04-07T08:27:47;100413.91;;;21.19;34.57
35551;BME280;21655;46.056;13.616;2023-04-07T08:30:13;100396.34;;;21.05;35.55
35551;BME280;21655;46.056;13.616;2023-04-07T08:32:43;100394.47;;;20.19;34.95
35551;BME280;21655;46.056;13.616;2023-04-07T08:35:09;100393.03;;;19.99;36.75
35551;BME280;21655;46.056;13.616;2023-04-07T08:37:37;100391.53;;;19.96;38.40
35551;BME280;21655;46.056;13.616;2023-04-07T08:40:03;100389.72;;;21.23;37.33
35551;BME280;21655;46.056;13.616;2023-04-07T08:42:31;100383.91;;;20.15;36.77
35551;BME280;21655;46.056;13.616;2023-04-07T08:45:02;100379.31;;;21.63;35.86
35551;BME280;21655;46.056;13.616;2023-04-07T08:47:30;100371.44;;;21.25;38.53
35551;BME280;21655;46.056;13.616;2023-04-07T08:50:07;100366.88;;;23.23;34.73
35551;BME280;21655;46.056;13.616;2023-04-07T08:52:36;100360.38;;;22.36;35.13
35551;BME280;21655;46.056;13.616;2023-04-07T08:55:04;100365.94;;;22.64;34.04
35551;BME280;21655;46.056;13.616;2023-04-07T08:57:33;100364.38;;;21.79;35.16
35551;BME280;21655;46.056;13.616;2023-04-07T09:00:00;100367.53;;;21.03;35.84
35551;BME280;21655;46.056;13.616;2023-04-07T09:02:33;100365.44;;;20.30;36.52
35551;BME280;21655;46.056;13.616;2023-04-07T09:05:00;100357.31;;;19.70;39.27
35551;BME280;21655;46.056;13.616;2023-04-07T09:07:25;100354.06;;;21.45;35.11
35551;BME280;21655;46.056;13.616;2023-04-07T09:09:51;100353.69;;;21.13;37.00
35551;BME280;21655;46.056;13.616;2023-04-07T09:12:16;100351.34;;;22.06;35.97
35551;BME280;21655;46.056;13.616;2023-04-07T09:14:42;100349.53;;;20.93;36.54
35551;BME280;21655;46.056;13.616;2023-04-07T09:17:07;100355.56;;;20.85;36.26
35551;BME280;21655;46.056;13.616;2023-04-07T09:19:33;100333.25;;;20.26;37.61
35551;BME280;21655;46.056;13.616;2023-04-07T09:21:58;100336.47;;;19.59;37.56
35551;BME280;21655;46.056;13.616;2023-04-07T09:24:27;100340.09;;;18.16;40.63
35551;BME280;21655;46.056;13.616;2023-04-07T09:27:12;100340.97;;;18.59;40.68
35551;BME280;21655;46.056;13.616;2023-04-07T09:29:40;100337.72;;;17.64;41.02
35551;BME280;21655;46.056;13.616;2023-04-07T09:32:07;100332.72;;;19.00;40.03
35551;BME280;21655;46.056;13.616;2023-04-07T09:34:34;100330.28;;;19.39;40.01
35551;BME280;21655;46.056;13.616;2023-04-07T09:37:01;100331.25;;;18.62;41.96
35551;BME280;21655;46.056;13.616;2023-04-07T09:39:27;100333.38;;;17.68;41.78
35551;BME280;21655;46.056;13.616;2023-04-07T09:41:53;100328.03;;;17.60;43.00
35551;BME280;21655;46.056;13.616;2023-04-07T09:44:20;100334.72;;;17.22;44.70
35551;BME280;21655;46.056;13.616;2023-04-07T09:49:19;100314.91;;;17.85;42.25
35551;BME280;21655;46.056;13.616;2023-04-07T09:51:56;100318.16;;;18.56;41.10
35551;BME280;21655;46.056;13.616;2023-04-07T09:54:39;100316.25;;;18.50;40.42
35551;BME280;21655;46.056;13.616;2023-04-07T09:57:10;100319.94;;;17.46;43.33
35551;BME280;21655;46.056;13.616;2023-04-07T09:59:37;100310.34;;;18.94;40.84
35551;BME280;21655;46.056;13.616;2023-04-07T10:02:04;100316.34;;;20.26;38.74
35551;BME280;21655;46.056;13.616;2023-04-07T10:04:30;100300.41;;;19.68;40.12
35551;BME280;21655;46.056;13.616;2023-04-07T10:06:57;100300.66;;;20.42;39.01
35551;BME280;21655;46.056;13.616;2023-04-07T10:09:25;100299.94;;;20.12;37.48
35551;BME280;21655;46.056;13.616;2023-04-07T10:11:52;100298.22;;;19.70;38.47
35551;BME280;21655;46.056;13.616;2023-04-07T10:14:20;100299.38;;;18.86;40.32
35551;BME280;21655;46.056;13.616;2023-04-07T10:16:46;100289.78;;;19.81;39.18
35551;BME280;21655;46.056;13.616;2023-04-07T10:19:13;100289.47;;;20.01;38.70
35551;BME280;21655;46.056;13.616;2023-04-07T10:21:40;100277.97;;;19.50;38.26
35551;BME280;21655;46.056;13.616;2023-04-07T10:26:54;100277.00;;;19.97;36.30
35551;BME280;21655;46.056;13.616;2023-04-07T10:29:22;100286.03;;;17.78;39.58
35551;BME280;21655;46.056;13.616;2023-04-07T10:31:49;100277.88;;;19.09;39.61
35551;BME280;21655;46.056;13.616;2023-04-07T10:34:15;100275.69;;;18.64;38.71
35551;BME280;21655;46.056;13.616;2023-04-07T10:37:08;100264.16;;;19.60;37.82
35551;BME280;21655;46.056;13.616;2023-04-07T10:39:34;100272.56;;;19.78;36.62
35551;BME280;21655;46.056;13.616;2023-04-07T10:42:00;100267.47;;;19.57;36.22
35551;BME280;21655;46.056;13.616;2023-04-07T10:47:07;100262.72;;;19.57;36.24
35551;BME280;21655;46.056;13.616;2023-04-07T10:49:34;100258.66;;;20.17;37.10
35551;BME280;21655;46.056;13.616;2023-04-07T10:52:20;100250.22;;;20.29;36.02
35551;BME280;21655;46.056;13.616;2023-04-07T10:54:47;100257.72;;;19.71;37.87
35551;BME280;21655;46.056;13.616;2023-04-07T10:57:15;100259.25;;;20.08;36.84
35551;BME280;21655;46.056;13.616;2023-04-07T11:02:36;100249.50;;;19.58;36.70
35551;BME280;21655;46.056;13.616;2023-04-07T11:05:02;100246.25;;;19.84;36.45
35551;BME280;21655;46.056;13.616;2023-04-07T11:07:45;100253.34;;;19.34;37.37
35551;BME280;21655;46.056;13.616;2023-04-07T11:10:11;100248.00;;;20.42;36.97
35551;BME280;21655;46.056;13.616;2023-04-07T11:12:37;100244.78;;;19.29;36.52
35551;BME280;21655;46.056;13.616;2023-04-07T11:15:19;100243.94;;;18.63;38.86
35551;BME280;21655;46.056;13.616;2023-04-07T11:17:46;100249.81;;;18.19;39.57
35551;BME280;21655;46.056;13.616;2023-04-07T11:20:12;100253.19;;;16.49;42.78
35551;BME280;21655;46.056;13.616;2023-04-07T11:22:37;100262.97;;;16.77;41.27
35551;BME280;21655;46.056;13.616;2023-04-07T11:25:19;100258.81;;;16.16;43.41
35551;BME280;21655;46.056;13.616;2023-04-07T11:27:45;100256.91;;;16.17;43.80
35551;BME280;21655;46.056;13.616;2023-04-07T11:30:12;100271.56;;;15.86;44.08
35551;BME280;21655;46.056;13.616;2023-04-07T11:32:37;100258.91;;;16.67;43.33
35551;BME280;21655;46.056;13.616;2023-04-07T11:35:05;100271.47;;;17.02;43.05
35551;BME280;21655;46.056;13.616;2023-04-07T11:37:31;100259.22;;;16.90;42.36
35551;BME280;21655;46.056;13.616;2023-04-07T11:39:57;100252.16;;;17.80;40.45
35551;BME280;21655;46.056;13.616;2023-04-07T11:42:36;100255.63;;;17.75;40.65
35551;BME280;21655;46.056;13.616;2023-04-07T11:45:03;100257.19;;;18.56;38.17
35551;BME280;21655;46.056;13.616;2023-04-07T11:47:38;100256.72;;;18.41;37.87
35551;BME280;21655;46.056;13.616;2023-04-07T11:50:05;100258.03;;;17.47;39.50
35551;BME280;21655;46.056;13.616;2023-04-07T11:52:45;100252.88;;;18.36;39.65
35551;BME280;21655;46.056;13.616;2023-04-07T11:55:19;100241.28;;;18.68;37.99
35551;BME280;21655;46.056;13.616;2023-04-07T11:57:45;100245.25;;;19.67;36.10
35551;BME280;21655;46.056;13.616;2023-04-07T12:00:12;100251.19;;;19.47;36.34
35551;BME280;21655;46.056;13.616;2023-04-07T12:02:39;100250.63;;;18.80;36.19
35551;BME280;21655;46.056;13.616;2023-04-07T12:05:05;100270.31;;;17.15;37.55
35551;BME280;21655;46.056;13.616;2023-04-07T12:07:31;100246.66;;;18.52;36.84
35551;BME280;21655;46.056;13.616;2023-04-07T12:09:57;100247.63;;;19.11;37.87
35551;BME280;21655;46.056;13.616;2023-04-07T12:12:29;100249.63;;;18.39;39.08
35551;BME280;21655;46.056;13.616;2023-04-07T12:14:57;100241.03;;;18.34;39.53
35551;BME280;21655;46.056;13.616;2023-04-07T12:17:24;100249.19;;;18.17;40.16
35551;BME280;21655;46.056;13.616;2023-04-07T12:19:50;100246.59;;;18.40;39.76
35551;BME280;21655;46.056;13.616;2023-04-07T12:22:16;100248.22;;;18.05;39.00
35551;BME280;21655;46.056;13.616;2023-04-07T12:24:42;100234.63;;;17.29;40.55
35551;BME280;21655;46.056;13.616;2023-04-07T12:27:07;100232.72;;;17.54;39.30
35551;BME280;21655;46.056;13.616;2023-04-07T12:29:34;100226.44;;;17.27;40.71
35551;BME280;21655;46.056;13.616;2023-04-07T12:32:02;100233.44;;;17.74;39.52
35551;BME280;21655;46.056;13.616;2023-04-07T12:34:27;100224.41;;;18.14;39.66
35551;BME280;21655;46.056;13.616;2023-04-07T12:36:53;100224.72;;;18.60;38.60
35551;BME280;21655;46.056;13.616;2023-04-07T12:39:18;100225.25;;;18.69;39.11
35551;BME280;21655;46.056;13.616;2023-04-07T12:41:44;100217.81;;;18.45;39.74
35551;BME280;21655;46.056;13.616;2023-04-07T12:44:14;100212.56;;;18.66;40.28
35551;BME280;21655;46.056;13.616;2023-04-07T12:46:40;100216.19;;;18.85;39.38
35551;BME280;21655;46.056;13.616;2023-04-07T12:49:07;100220.03;;;18.18;39.72
35551;BME280;21655;46.056;13.616;2023-04-07T12:51:32;100221.75;;;17.52;40.83
35551;BME280;21655;46.056;13.616;2023-04-07T12:53:58;100224.41;;;17.47;40.47
35551;BME280;21655;46.056;13.616;2023-04-07T12:56:25;100225.34;;;17.28;41.95
35551;BME280;21655;46.056;13.616;2023-04-07T12:58:52;100220.13;;;17.07;41.95
35551;BME280;21655;46.056;13.616;2023-04-07T13:01:17;100215.88;;;16.99;42.43